Latest Weather Observations for Century Mine

IDQ60801

Issued at 4:32 pm EST Sunday 24 July 2016 (issued every 30 minutes, with the page automatically refreshed every 10 minutes)

About weather observations | Map of weather stations | Latest weather observations for QLD | Other Formats
Station Details ID: 029167 Name: CENTURY MINE Lat: -18.76 Lon: 138.71 Height: 126.8 m
Data from the previous 72 hours. | See also: Recent months at Century Mine
Date/Time
EST
Temp
°C
App
Temp
°C
Dew
Point
°C
Rel
Hum
%
Delta-T
°C
Wind Press
QNH
hPa
Press
MSL
hPa
Rain since
9am
mm
Dir  Spd
km/h
Gust
km/h
Spd
kts
Gust
kts
24/04:30pm 32.0 29.5 8.3 23 13.2 ESE 11 17 6 9 1012.7 1012.3 0.0
24/04:00pm 32.5 30.3 8.0 22 13.6 E 9 17 5 9 1012.6 1012.2 0.0
24/03:30pm 32.2 30.0 7.8 22 13.5 E 9 19 5 10 1012.9 1012.5 0.0
24/03:00pm 31.8 29.1 7.5 22 13.4 SE 11 20 6 11 1013.1 1012.7 0.0
24/02:30pm 31.5 29.5 8.5 24 12.8 ESE 9 20 5 11 1013.5 1013.1 0.0
24/02:00pm 32.0 29.8 9.5 25 12.8 ESE 11 19 6 10 1014.1 1013.7 0.0
24/01:30pm 31.4 28.7 9.0 25 12.6 ESE 13 24 7 13 1014.6 1014.2 0.0
24/01:00pm 31.4 28.9 9.6 26 12.4 ESE 13 19 7 10 1015.0 1014.6 0.0
24/12:30pm 30.4 27.3 8.7 26 12.1 ESE 15 20 8 11 1015.6 1015.2 0.0
24/12:00pm 29.8 27.6 9.3 28 11.5 ESE 11 17 6 9 1015.9 1015.5 0.0
24/11:30am 28.8 26.5 9.0 29 11.0 E 11 19 6 10 1016.3 1015.9 0.0
24/11:00am 27.7 24.9 8.6 30 10.5 SE 13 20 7 11 1016.9 1016.5 0.0
24/10:30am 26.2 23.3 8.2 32 9.7 SE 13 20 7 11 1017.2 1016.8 0.0
24/10:00am 25.0 22.1 8.1 34 9.1 SE 13 19 7 10 1017.2 1016.8 0.0
24/09:30am 23.6 20.7 8.1 37 8.2 SE 13 22 7 12 1017.2 1016.8 0.0
24/09:00am 21.7 19.8 8.9 44 6.8 SSE 9 11 5 6 1017.1 1016.7 0.0
24/08:30am 19.7 18.2 10.4 55 5.0 S 9 11 5 6 1016.8 1016.4 0.0
24/08:00am 16.2 15.3 11.4 73 2.6 S 7 11 4 6 1016.5 1016.1 0.0
24/07:30am 13.4 13.3 9.3 76 2.1 CALM 0 0 0 0 1016.2 1015.8 0.0
24/07:00am 14.1 14.0 9.3 73 2.5 CALM 0 0 0 0 1015.9 1015.5 0.0
24/06:30am 14.6 13.3 9.2 70 2.8 S 6 7 3 4 1015.5 1015.1 0.0
24/06:00am 15.0 13.5 9.1 68 3.0 SSW 7 7 4 4 1015.3 1014.9 0.0
24/05:30am 15.9 15.5 9.6 66 3.3 SSW 2 9 1 5 1015.1 1014.7 0.0
24/05:00am 16.3 14.6 9.7 65 3.5 SW 9 11 5 6 1014.8 1014.4 0.0
24/04:30am 16.9 16.5 9.6 62 3.8 SW 2 6 1 3 1014.5 1014.1 0.0
24/04:00am 16.9 15.1 9.3 61 4.0 SW 9 9 5 5 1014.5 1014.1 0.0
24/03:30am 17.1 16.8 8.8 58 4.3 CALM 0 0 0 0 1014.2 1013.8 0.0
24/03:00am 19.2 18.6 8.8 51 5.5 S 2 6 1 3 1014.2 1013.8 0.0
24/02:30am 20.4 18.9 9.3 49 5.9 S 7 11 4 6 1014.2 1013.8 0.0
24/02:00am 21.2 19.0 9.4 47 6.3 SSW 11 13 6 7 1014.2 1013.8 0.0
24/01:30am 21.2 19.3 9.1 46 6.5 S 9 15 5 8 1014.3 1013.9 0.0
24/01:00am 21.6 19.6 8.8 44 6.8 S 9 15 5 8 1014.0 1013.6 0.0
24/12:30am 22.6 20.2 8.7 41 7.4 SSE 11 15 6 8 1014.1 1013.7 0.0
24/12:00am 23.3 20.5 8.6 39 7.9 S 13 22 7 12 1014.0 1013.6 0.0
 
Date/Time
EST
Temp
°C
App
Temp
°C
Dew
Point
°C
Rel
Hum
%
Delta-T
°C
Wind Press
QNH
hPa
Press
MSL
hPa
Rain since
9am
mm
Dir  Spd
km/h
Gust
km/h
Spd
kts
Gust
kts
23/11:30pm 23.7 20.8 8.2 37 8.3 S 13 20 7 11 1013.9 1013.5 0.0
23/11:00pm 24.3 21.0 7.9 35 8.7 S 15 28 8 15 1013.8 1013.4 0.0
23/10:30pm 25.2 22.1 8.7 35 9.0 S 15 28 8 15 1013.6 1013.2 0.0
23/10:00pm 25.9 22.4 8.8 34 9.3 S 17 24 9 13 1013.5 1013.1 0.0
23/09:30pm 26.1 22.9 8.6 33 9.5 S 15 22 8 12 1013.3 1012.9 0.0
23/09:00pm 23.1 22.9 9.1 41 7.6 CALM 0 0 0 0 1012.5 1012.1 0.0
23/08:30pm 24.4 23.0 8.8 37 8.4 SSW 6 6 3 3 1012.4 1012.0 0.0
23/08:00pm 25.7 24.1 8.7 34 9.3 S 7 9 4 5 1012.2 1011.8 0.0
23/07:30pm 26.7 25.1 8.6 32 9.9 SSW 7 9 4 5 1011.8 1011.4 0.0
23/07:00pm 27.7 26.1 8.6 30 10.5 SW 7 11 4 6 1011.5 1011.1 0.0
23/06:30pm 29.7 27.6 8.2 26 11.8 SSW 9 15 5 8 1011.4 1011.0 0.0
23/06:00pm 31.6 29.6 8.6 24 12.9 S 9 13 5 7 1011.3 1010.9 0.0
23/05:30pm 33.0 31.3 8.5 22 13.8 SW 7 15 4 8 1011.2 1010.8 0.0
23/05:00pm 32.9 31.2 8.4 22 13.8 ESE 7 19 4 10 1011.1 1010.7 0.0
23/04:30pm 33.9 32.6 9.2 22 14.1 SSW 6 15 3 8 1011.0 1010.6 0.0
23/04:00pm 33.7 32.2 9.0 22 14.1 S 7 15 4 8 1011.2 1010.8 0.0
23/03:30pm 34.1 33.1 8.7 21 14.4 SSW 4 9 2 5 1011.4 1011.0 0.0
23/03:00pm 33.3 31.3 8.7 22 13.9 ESE 9 19 5 10 1011.8 1011.4 0.0
23/02:30pm 33.7 31.2 9.7 23 13.8 SE 13 19 7 10 1012.2 1011.8 0.0
23/02:00pm 33.0 30.9 9.7 24 13.4 S 11 20 6 11 1012.6 1012.2 0.0
23/01:30pm 32.8 30.9 8.9 23 13.5 SSE 9 20 5 11 1013.1 1012.7 0.0
23/01:00pm 32.7 30.5 9.5 24 13.2 E 11 20 6 11 1013.6 1013.2 0.0
23/12:30pm 32.5 31.4 9.9 25 13.0 ESE 6 17 3 9 1014.1 1013.7 0.0
23/12:00pm 31.5 29.2 9.1 25 12.6 ESE 11 20 6 11 1014.7 1014.3 0.0
23/11:30am 32.1 29.2 9.6 25 12.8 ESE 15 20 8 11 1015.2 1014.8 0.0
23/11:00am 31.3 28.8 8.3 24 12.8 SE 11 19 6 10 1015.4 1015.0 0.0
23/10:30am 30.3 28.2 9.8 28 11.6 SE 11 17 6 9 1015.6 1015.2 0.0
23/10:00am 28.9 26.5 10.1 31 10.6 SE 13 17 7 9 1015.9 1015.5 0.0
23/09:30am 27.6 28.0 12.4 39 8.9 SE 2 6 1 3 1015.8 1015.4 0.0
23/09:00am 24.8 24.6 13.0 47 6.9 S 6 9 3 5 1015.6 1015.2 0.0
23/08:30am 22.8 23.1 14.6 60 4.9 S 6 9 3 5 1015.5 1015.1 0.0
23/08:00am 19.8 19.8 14.2 70 3.3 SSW 7 9 4 5 1015.0 1014.6 0.0
23/07:30am 17.1 16.3 13.0 77 2.3 SSW 9 9 5 5 1014.6 1014.2 0.0
23/07:00am 16.9 16.4 12.6 76 2.4 SSW 7 9 4 5 1014.3 1013.9 0.0
23/06:30am 17.3 17.0 12.6 74 2.6 SSW 6 7 3 4 1014.0 1013.6 0.0
23/06:00am 17.6 16.9 13.1 75 2.5 SSW 9 9 5 5 1013.6 1013.2 0.0
23/05:30am 17.9 17.6 12.8 72 2.9 SSE 6 7 3 4 1013.3 1012.9 0.0
23/05:00am 18.9 19.7 12.6 67 3.5 CALM 0 0 0 0 1013.0 1012.6 0.0
23/04:30am 19.7 19.4 13.2 66 3.7 SSW 7 9 4 5 1012.9 1012.5 0.0
23/04:00am 19.7 19.5 13.6 68 3.5 SSW 7 9 4 5 1012.7 1012.3 0.0
23/03:30am 18.9 18.7 13.1 69 3.3 SSW 6 7 3 4 1012.7 1012.3 0.0
23/03:00am 20.2 21.1 12.9 63 4.2 CALM 0 0 0 0 1012.7 1012.3 0.0
23/02:30am 21.2 20.5 13.1 60 4.7 S 9 9 5 5 1012.8 1012.4 0.0
23/02:00am 22.1 21.9 13.7 59 4.9 SSW 7 9 4 5 1013.0 1012.6 0.0
23/01:30am 22.3 22.1 13.6 58 5.1 S 7 9 4 5 1013.1 1012.7 0.0
23/01:00am 23.0 22.9 13.8 56 5.4 SSW 7 9 4 5 1013.1 1012.7 0.0
23/12:30am 23.2 22.8 14.2 57 5.3 SSW 9 13 5 7 1013.3 1012.9 0.0
23/12:00am 23.6 23.7 13.8 54 5.8 SW 6 7 3 4 1013.3 1012.9 0.0
 
Date/Time
EST
Temp
°C
App
Temp
°C
Dew
Point
°C
Rel
Hum
%
Delta-T
°C
Wind Press
QNH
hPa
Press
MSL
hPa
Rain since
9am
mm
Dir  Spd
km/h
Gust
km/h
Spd
kts
Gust
kts
22/11:30pm 24.8 24.8 13.7 50 6.5 S 6 7 3 4 1013.5 1013.1 0.0
22/11:00pm 26.0 25.5 13.8 47 7.2 SSE 9 13 5 7 1013.6 1013.2 0.0
22/10:30pm 26.1 25.7 14.2 48 7.1 S 9 15 5 8 1013.5 1013.1 0.0
22/10:00pm 25.3 25.4 15.6 55 5.9 SSW 9 13 5 7 1013.4 1013.0 0.0
22/09:30pm 23.3 23.6 15.1 60 4.9 SSW 7 9 4 5 1013.2 1012.8 0.0
22/09:00pm 24.2 24.5 15.1 56 5.5 SW 7 7 4 4 1013.1 1012.7 0.0
22/08:30pm 24.8 25.3 15.1 54 5.9 SW 6 7 3 4 1013.0 1012.6 0.0
22/08:00pm 25.4 25.7 15.1 53 6.2 SW 7 9 4 5 1012.7 1012.3 0.0
22/07:30pm 26.0 26.4 14.8 50 6.8 SSW 6 7 3 4 1012.3 1011.9 0.0
22/07:00pm 27.7 27.9 14.3 43 8.1 S 6 7 3 4 1011.9 1011.5 0.0
22/06:30pm 29.5 29.7 14.1 39 9.3 SSW 6 7 3 4 1011.8 1011.4 0.0
22/06:00pm 31.5 31.5 14.2 35 10.6 SSW 7 11 4 6 1011.8 1011.4 0.0
22/05:30pm 32.1 31.2 13.8 33 11.1 SSW 11 15 6 8 1011.6 1011.3 0.0
22/05:00pm 33.3 32.5 13.9 31 11.9 SSW 11 17 6 9 1011.6 1011.3 0.0
22/04:30pm 33.5 32.7 14.0 30 12.0 S 11 19 6 10 1011.6 1011.3 0.0
22/04:00pm 33.6 33.4 13.6 29 12.2 WSW 7 15 4 8 1011.5 1011.1 0.0
22/03:30pm 33.3 33.7 14.8 32 11.5 NNE 6 9 3 5 1011.6 1011.3 0.0
22/03:00pm 31.1 32.2 14.7 37 10.1 ESE 2 7 1 4 1012.2 1011.8 0.0
22/02:30pm 31.9 31.1 14.1 34 10.9 SSE 11 17 6 9 1012.5 1012.1 0.0
22/02:00pm 31.7 33.3 16.0 38 9.9 NE 2 9 1 5 1012.9 1012.5 0.0
22/01:30pm 30.5 31.2 16.1 41 9.0 S 7 13 4 7 1013.3 1012.9 0.0
22/01:00pm 31.6 31.9 16.0 39 9.8 SSE 9 15 5 8 1013.9 1013.5 0.0
22/12:30pm 31.5 31.6 16.6 40 9.4 ESE 11 17 6 9 1014.4 1014.0 0.0
22/12:00pm 31.3 32.1 17.2 42 9.0 E 9 15 5 8 1014.9 1014.5 0.0
22/11:30am 32.1 33.1 18.7 45 8.7 E 11 20 6 11 1015.2 1014.8 0.0
22/11:00am 30.4 31.2 18.2 48 7.9 E 11 20 6 11 1015.5 1015.1 0.0
22/10:30am 29.1 29.3 17.6 50 7.3 ESE 13 20 7 11 1015.8 1015.4 0.0
22/10:00am 28.2 28.4 17.7 53 6.7 ESE 13 17 7 9 1015.9 1015.5 0.0
22/09:30am 27.8 28.4 17.6 53 6.5 ESE 11 15 6 8 1015.8 1015.4 0.0
22/09:00am 26.8 28.5 18.1 59 5.5 ESE 6 9 3 5 1015.6 1015.2 0.0
22/08:30am 24.1 25.9 18.3 70 3.7 SSE 6 7 3 4 1015.3 1014.9 0.0
22/08:00am 21.2 22.5 17.2 78 2.5 S 6 7 3 4 1015.0 1014.6 0.0
22/07:30am 19.5 21.2 15.2 76 2.5 CALM 0 0 0 0 1014.8 1014.4 0.0
22/07:00am 20.4 20.8 15.2 72 3.1 SSE 7 7 4 4 1014.5 1014.1 0.0
22/06:30am 20.7 21.2 15.0 70 3.4 SSE 6 6 3 3 1014.3 1013.9 0.0
22/06:00am 21.7 21.8 15.5 68 3.7 S 9 11 5 6 1014.1 1013.7 0.0
22/05:30am 21.8 22.2 15.4 67 3.8 S 7 9 4 5 1014.0 1013.6 0.0
22/05:00am 22.0 22.1 15.6 67 3.8 S 9 11 5 6 1013.9 1013.5 0.0
22/04:30am 21.9 22.1 15.7 68 3.7 S 9 11 5 6 1013.9 1013.5 0.0
22/04:00am 21.8 22.1 16.1 70 3.5 S 9 11 5 6 1014.0 1013.6 0.0
22/03:30am 21.1 21.9 16.3 74 2.9 S 7 9 4 5 1014.1 1013.7 0.0
22/03:00am 21.5 22.4 16.7 74 2.9 S 7 9 4 5 1014.2 1013.8 0.0
22/02:30am 21.0 22.7 16.2 74 2.9 SSW 2 9 1 5 1014.2 1013.8 0.0
22/02:00am 22.0 24.2 16.5 71 3.4 CALM 0 0 0 0 1014.4 1014.0 0.0
22/01:30am 22.1 22.6 16.6 71 3.4 SSW 9 11 5 6 1014.8 1014.4 0.0
22/01:00am 21.7 22.9 15.8 69 3.6 ESE 4 7 2 4 1014.8 1014.4 0.0
22/12:30am 22.5 24.5 16.1 67 3.9 CALM 0 0 0 0 1014.8 1014.4 0.0
22/12:00am 22.6 24.6 15.9 66 4.1 CALM 0 0 0 0 1014.8 1014.4 0.0
 
Date/Time
EST
Temp
°C
App
Temp
°C
Dew
Point
°C
Rel
Hum
%
Delta-T
°C
Wind Press
QNH
hPa
Press
MSL
hPa
Rain since
9am
mm
Dir  Spd
km/h
Gust
km/h
Spd
kts
Gust
kts
21/11:30pm 23.4 24.9 15.7 62 4.7 SE 2 7 1 4 1014.9 1014.5 0.0
21/11:00pm 23.8 25.3 15.8 61 4.9 ENE 2 7 1 4 1014.8 1014.4 0.0
21/10:30pm 23.9 24.7 15.9 61 4.9 NE 6 17 3 9 1014.7 1014.3 0.0
21/10:00pm 23.0 23.6 15.3 62 4.6 SSW 6 7 3 4 1014.5 1014.1 0.0
21/09:30pm 23.2 23.8 15.3 61 4.8 SSW 6 7 3 4 1014.4 1014.0 0.0
21/09:00pm 23.3 23.6 15.1 60 4.9 SSW 7 9 4 5 1014.1 1013.7 0.0
21/08:30pm 24.1 24.6 15.1 57 5.4 SSW 6 9 3 5 1013.9 1013.5 0.0
21/08:00pm 24.8 25.2 15.4 56 5.7 SW 7 9 4 5 1013.6 1013.2 0.0
21/07:30pm 25.5 25.8 14.9 52 6.4 SSW 7 7 4 4 1013.2 1012.8 0.0
21/07:00pm 26.5 26.7 14.6 48 7.2 SSW 7 9 4 5 1012.8 1012.4 0.0
21/06:30pm 28.8 29.0 14.2 40 8.8 SSE 6 7 3 4 1012.5 1012.1 0.0
21/06:00pm 30.8 31.1 14.4 36 10.0 SE 6 9 3 5 1012.2 1011.8 0.0
21/05:30pm 32.0 32.0 14.2 34 10.9 SE 7 13 4 7 1012.1 1011.7 0.0
21/05:00pm 33.1 33.9 13.7 31 11.8 SSE 2 9 1 5 1012.1 1011.7 0.0

Other Formats:

Comma delimited format used in spreadsheet applications
http://www.bom.gov.au/fwo/IDQ60801/IDQ60801.94261.axf

JavaScript Object Notation format (JSON) in row-major order
http://www.bom.gov.au/fwo/IDQ60801/IDQ60801.94261.json